sensor_id;sensor_type;location;lat;lon;timestamp;P1;durP1;ratioP1;P2;durP2;ratioP2
48629;SDS011;34426;52.180;4.462;2023-09-19T00:01:24;13.40;;;2.22;;
48629;SDS011;34426;52.180;4.462;2023-09-19T00:03:51;14.05;;;2.53;;
48629;SDS011;34426;52.180;4.462;2023-09-19T00:06:16;17.48;;;2.60;;
48629;SDS011;34426;52.180;4.462;2023-09-19T00:08:42;14.45;;;2.72;;
48629;SDS011;34426;52.180;4.462;2023-09-19T00:11:07;19.75;;;2.78;;
48629;SDS011;34426;52.180;4.462;2023-09-19T00:13:33;16.38;;;2.97;;
48629;SDS011;34426;52.180;4.462;2023-09-19T00:15:58;16.60;;;2.83;;
48629;SDS011;34426;52.180;4.462;2023-09-19T00:18:24;18.10;;;3.38;;
48629;SDS011;34426;52.180;4.462;2023-09-19T00:20:51;20.23;;;2.63;;
48629;SDS011;34426;52.180;4.462;2023-09-19T00:23:17;11.73;;;2.60;;
48629;SDS011;34426;52.180;4.462;2023-09-19T00:25:42;12.38;;;2.22;;
48629;SDS011;34426;52.180;4.462;2023-09-19T00:28:08;15.48;;;3.28;;
48629;SDS011;34426;52.180;4.462;2023-09-19T00:30:33;11.95;;;2.38;;
48629;SDS011;34426;52.180;4.462;2023-09-19T00:32:59;13.30;;;3.10;;
48629;SDS011;34426;52.180;4.462;2023-09-19T00:35:25;14.35;;;2.92;;
48629;SDS011;34426;52.180;4.462;2023-09-19T00:37:52;14.27;;;2.92;;
48629;SDS011;34426;52.180;4.462;2023-09-19T00:40:18;20.02;;;3.35;;
48629;SDS011;34426;52.180;4.462;2023-09-19T00:42:44;17.75;;;3.72;;
48629;SDS011;34426;52.180;4.462;2023-09-19T00:45:10;25.38;;;4.30;;
48629;SDS011;34426;52.180;4.462;2023-09-19T00:47:36;14.45;;;2.88;;
48629;SDS011;34426;52.180;4.462;2023-09-19T00:50:03;17.15;;;3.47;;
48629;SDS011;34426;52.180;4.462;2023-09-19T00:52:29;23.75;;;3.42;;
48629;SDS011;34426;52.180;4.462;2023-09-19T00:54:56;25.17;;;3.72;;
48629;SDS011;34426;52.180;4.462;2023-09-19T00:57:22;17.17;;;3.67;;
48629;SDS011;34426;52.180;4.462;2023-09-19T00:59:48;19.98;;;3.33;;
48629;SDS011;34426;52.180;4.462;2023-09-19T01:02:18;16.83;;;3.50;;
48629;SDS011;34426;52.180;4.462;2023-09-19T01:04:44;21.48;;;3.50;;
48629;SDS011;34426;52.180;4.462;2023-09-19T01:07:10;21.58;;;3.95;;
48629;SDS011;34426;52.180;4.462;2023-09-19T01:09:35;20.38;;;3.40;;
48629;SDS011;34426;52.180;4.462;2023-09-19T01:12:02;17.85;;;3.65;;
48629;SDS011;34426;52.180;4.462;2023-09-19T01:14:34;20.70;;;3.50;;
48629;SDS011;34426;52.180;4.462;2023-09-19T01:17:08;15.63;;;3.25;;
48629;SDS011;34426;52.180;4.462;2023-09-19T01:19:46;19.80;;;3.47;;
48629;SDS011;34426;52.180;4.462;2023-09-19T01:22:29;24.45;;;3.70;;
48629;SDS011;34426;52.180;4.462;2023-09-19T01:27:58;17.60;;;4.20;;
48629;SDS011;34426;52.180;4.462;2023-09-19T01:30:40;19.90;;;3.70;;
48629;SDS011;34426;52.180;4.462;2023-09-19T01:33:08;19.10;;;4.07;;
48629;SDS011;34426;52.180;4.462;2023-09-19T01:35:34;26.15;;;3.85;;
48629;SDS011;34426;52.180;4.462;2023-09-19T01:37:59;25.95;;;4.95;;
48629;SDS011;34426;52.180;4.462;2023-09-19T01:40:25;30.73;;;4.05;;
48629;SDS011;34426;52.180;4.462;2023-09-19T01:42:53;19.42;;;3.30;;
48629;SDS011;34426;52.180;4.462;2023-09-19T01:45:26;27.52;;;3.70;;
48629;SDS011;34426;52.180;4.462;2023-09-19T01:48:00;17.23;;;3.72;;
48629;SDS011;34426;52.180;4.462;2023-09-19T01:50:38;20.13;;;3.42;;
48629;SDS011;34426;52.180;4.462;2023-09-19T01:53:10;20.38;;;3.53;;
48629;SDS011;34426;52.180;4.462;2023-09-19T01:55:46;27.48;;;4.20;;
48629;SDS011;34426;52.180;4.462;2023-09-19T01:58:15;24.42;;;4.05;;
48629;SDS011;34426;52.180;4.462;2023-09-19T02:00:45;24.48;;;4.50;;
48629;SDS011;34426;52.180;4.462;2023-09-19T02:03:14;15.85;;;4.00;;
48629;SDS011;34426;52.180;4.462;2023-09-19T02:05:40;25.88;;;4.28;;
48629;SDS011;34426;52.180;4.462;2023-09-19T02:08:06;21.98;;;3.83;;
48629;SDS011;34426;52.180;4.462;2023-09-19T02:10:31;20.65;;;3.60;;
48629;SDS011;34426;52.180;4.462;2023-09-19T02:12:57;23.88;;;3.95;;
48629;SDS011;34426;52.180;4.462;2023-09-19T02:15:22;21.27;;;4.55;;
48629;SDS011;34426;52.180;4.462;2023-09-19T02:17:47;17.20;;;3.20;;
48629;SDS011;34426;52.180;4.462;2023-09-19T02:20:14;18.33;;;3.42;;
48629;SDS011;34426;52.180;4.462;2023-09-19T02:22:40;18.52;;;3.50;;
48629;SDS011;34426;52.180;4.462;2023-09-19T02:25:06;18.83;;;3.33;;
48629;SDS011;34426;52.180;4.462;2023-09-19T02:27:32;19.58;;;3.42;;
48629;SDS011;34426;52.180;4.462;2023-09-19T02:29:58;18.67;;;3.83;;
48629;SDS011;34426;52.180;4.462;2023-09-19T02:32:23;16.67;;;3.45;;
48629;SDS011;34426;52.180;4.462;2023-09-19T02:34:48;22.58;;;3.60;;
48629;SDS011;34426;52.180;4.462;2023-09-19T02:37:15;14.93;;;2.95;;
48629;SDS011;34426;52.180;4.462;2023-09-19T02:39:41;19.13;;;2.78;;
48629;SDS011;34426;52.180;4.462;2023-09-19T02:42:06;20.38;;;3.97;;
48629;SDS011;34426;52.180;4.462;2023-09-19T02:44:32;11.35;;;2.40;;
48629;SDS011;34426;52.180;4.462;2023-09-19T02:46:57;17.90;;;3.03;;
48629;SDS011;34426;52.180;4.462;2023-09-19T02:49:23;10.48;;;2.63;;
48629;SDS011;34426;52.180;4.462;2023-09-19T02:51:48;15.35;;;2.47;;
48629;SDS011;34426;52.180;4.462;2023-09-19T02:54:15;14.98;;;2.75;;
48629;SDS011;34426;52.180;4.462;2023-09-19T02:56:41;20.20;;;2.70;;
48629;SDS011;34426;52.180;4.462;2023-09-19T02:59:06;21.52;;;2.90;;
48629;SDS011;34426;52.180;4.462;2023-09-19T03:01:32;19.85;;;2.88;;
48629;SDS011;34426;52.180;4.462;2023-09-19T03:03:57;17.67;;;2.88;;
48629;SDS011;34426;52.180;4.462;2023-09-19T03:06:23;12.57;;;2.65;;
48629;SDS011;34426;52.180;4.462;2023-09-19T03:08:48;12.75;;;3.00;;
48629;SDS011;34426;52.180;4.462;2023-09-19T03:11:15;14.57;;;3.33;;
48629;SDS011;34426;52.180;4.462;2023-09-19T03:13:40;23.00;;;3.72;;
48629;SDS011;34426;52.180;4.462;2023-09-19T03:16:06;18.58;;;3.30;;
48629;SDS011;34426;52.180;4.462;2023-09-19T03:18:32;15.05;;;3.30;;
48629;SDS011;34426;52.180;4.462;2023-09-19T03:20:58;16.33;;;3.00;;
48629;SDS011;34426;52.180;4.462;2023-09-19T03:23:24;19.55;;;3.33;;
48629;SDS011;34426;52.180;4.462;2023-09-19T03:25:49;21.98;;;4.20;;
48629;SDS011;34426;52.180;4.462;2023-09-19T03:28:16;20.40;;;3.15;;
48629;SDS011;34426;52.180;4.462;2023-09-19T03:30:42;22.33;;;4.10;;
48629;SDS011;34426;52.180;4.462;2023-09-19T03:33:07;21.35;;;2.80;;
48629;SDS011;34426;52.180;4.462;2023-09-19T03:35:32;17.73;;;2.72;;
48629;SDS011;34426;52.180;4.462;2023-09-19T03:37:58;15.63;;;3.00;;
48629;SDS011;34426;52.180;4.462;2023-09-19T03:40:23;18.02;;;2.75;;
48629;SDS011;34426;52.180;4.462;2023-09-19T03:42:49;13.35;;;2.55;;
48629;SDS011;34426;52.180;4.462;2023-09-19T03:45:16;24.50;;;3.35;;
48629;SDS011;34426;52.180;4.462;2023-09-19T03:47:41;18.23;;;2.58;;
48629;SDS011;34426;52.180;4.462;2023-09-19T03:50:07;21.67;;;3.58;;
48629;SDS011;34426;52.180;4.462;2023-09-19T03:52:33;16.08;;;2.90;;
48629;SDS011;34426;52.180;4.462;2023-09-19T03:54:59;17.17;;;2.88;;
48629;SDS011;34426;52.180;4.462;2023-09-19T03:57:24;20.60;;;4.40;;
48629;SDS011;34426;52.180;4.462;2023-09-19T03:59:50;15.85;;;2.50;;
48629;SDS011;34426;52.180;4.462;2023-09-19T04:02:17;18.33;;;2.72;;
48629;SDS011;34426;52.180;4.462;2023-09-19T04:04:42;13.90;;;2.55;;
48629;SDS011;34426;52.180;4.462;2023-09-19T04:07:08;17.67;;;2.65;;
48629;SDS011;34426;52.180;4.462;2023-09-19T04:09:33;11.73;;;2.13;;
48629;SDS011;34426;52.180;4.462;2023-09-19T04:11:58;13.00;;;2.80;;
48629;SDS011;34426;52.180;4.462;2023-09-19T04:14:24;12.88;;;2.63;;
48629;SDS011;34426;52.180;4.462;2023-09-19T04:16:49;18.77;;;3.05;;
48629;SDS011;34426;52.180;4.462;2023-09-19T04:19:16;14.13;;;3.28;;
48629;SDS011;34426;52.180;4.462;2023-09-19T04:21:42;23.67;;;3.78;;
48629;SDS011;34426;52.180;4.462;2023-09-19T04:24:07;19.13;;;3.83;;
48629;SDS011;34426;52.180;4.462;2023-09-19T04:26:33;16.80;;;3.10;;
48629;SDS011;34426;52.180;4.462;2023-09-19T04:28:58;19.10;;;2.85;;
48629;SDS011;34426;52.180;4.462;2023-09-19T04:31:24;15.85;;;3.30;;
48629;SDS011;34426;52.180;4.462;2023-09-19T04:33:50;27.65;;;3.40;;
48629;SDS011;34426;52.180;4.462;2023-09-19T04:36:17;21.90;;;3.33;;
48629;SDS011;34426;52.180;4.462;2023-09-19T04:38:42;24.95;;;3.97;;
48629;SDS011;34426;52.180;4.462;2023-09-19T04:41:08;9.70;;;2.72;;
48629;SDS011;34426;52.180;4.462;2023-09-19T04:43:33;22.08;;;5.00;;
48629;SDS011;34426;52.180;4.462;2023-09-19T04:45:59;21.30;;;4.60;;
48629;SDS011;34426;52.180;4.462;2023-09-19T04:48:24;13.82;;;2.53;;
48629;SDS011;34426;52.180;4.462;2023-09-19T04:50:50;22.90;;;3.25;;
48629;SDS011;34426;52.180;4.462;2023-09-19T04:53:16;15.52;;;3.53;;
48629;SDS011;34426;52.180;4.462;2023-09-19T04:55:42;18.33;;;3.67;;
48629;SDS011;34426;52.180;4.462;2023-09-19T04:58:07;19.63;;;4.03;;
48629;SDS011;34426;52.180;4.462;2023-09-19T05:00:33;21.90;;;3.60;;
48629;SDS011;34426;52.180;4.462;2023-09-19T05:02:58;13.63;;;3.20;;
48629;SDS011;34426;52.180;4.462;2023-09-19T05:05:24;17.13;;;4.00;;
48629;SDS011;34426;52.180;4.462;2023-09-19T05:07:49;17.55;;;3.22;;
48629;SDS011;34426;52.180;4.462;2023-09-19T05:10:16;15.93;;;3.50;;
48629;SDS011;34426;52.180;4.462;2023-09-19T05:12:42;19.48;;;3.22;;
48629;SDS011;34426;52.180;4.462;2023-09-19T05:15:07;21.30;;;3.97;;
48629;SDS011;34426;52.180;4.462;2023-09-19T05:17:33;20.50;;;3.67;;
48629;SDS011;34426;52.180;4.462;2023-09-19T05:20:00;20.05;;;3.70;;
48629;SDS011;34426;52.180;4.462;2023-09-19T05:22:26;16.38;;;3.05;;
48629;SDS011;34426;52.180;4.462;2023-09-19T05:24:52;16.75;;;3.20;;
48629;SDS011;34426;52.180;4.462;2023-09-19T05:27:18;15.13;;;3.40;;
48629;SDS011;34426;52.180;4.462;2023-09-19T05:29:44;15.45;;;3.30;;
48629;SDS011;34426;52.180;4.462;2023-09-19T05:32:09;13.13;;;2.60;;
48629;SDS011;34426;52.180;4.462;2023-09-19T05:34:35;20.75;;;3.35;;
48629;SDS011;34426;52.180;4.462;2023-09-19T05:37:01;16.90;;;3.38;;
48629;SDS011;34426;52.180;4.462;2023-09-19T05:39:26;15.93;;;3.95;;
48629;SDS011;34426;52.180;4.462;2023-09-19T05:41:52;23.00;;;4.45;;
48629;SDS011;34426;52.180;4.462;2023-09-19T05:44:18;21.27;;;3.58;;
48629;SDS011;34426;52.180;4.462;2023-09-19T05:46:44;19.38;;;3.90;;
48629;SDS011;34426;52.180;4.462;2023-09-19T05:49:10;24.38;;;4.32;;
48629;SDS011;34426;52.180;4.462;2023-09-19T05:51:35;19.77;;;3.70;;
48629;SDS011;34426;52.180;4.462;2023-09-19T05:54:00;16.38;;;3.13;;
48629;SDS011;34426;52.180;4.462;2023-09-19T05:56:26;23.02;;;3.72;;
48629;SDS011;34426;52.180;4.462;2023-09-19T05:58:51;22.42;;;4.55;;
48629;SDS011;34426;52.180;4.462;2023-09-19T06:01:18;21.45;;;3.60;;
48629;SDS011;34426;52.180;4.462;2023-09-19T06:03:44;24.10;;;4.10;;
48629;SDS011;34426;52.180;4.462;2023-09-19T06:06:09;25.73;;;4.80;;
48629;SDS011;34426;52.180;4.462;2023-09-19T06:08:35;31.80;;;4.60;;
48629;SDS011;34426;52.180;4.462;2023-09-19T06:11:00;19.20;;;4.05;;
48629;SDS011;34426;52.180;4.462;2023-09-19T06:13:27;19.35;;;4.05;;
48629;SDS011;34426;52.180;4.462;2023-09-19T06:15:53;32.92;;;4.35;;
48629;SDS011;34426;52.180;4.462;2023-09-19T06:18:21;24.70;;;4.13;;
48629;SDS011;34426;52.180;4.462;2023-09-19T06:20:46;24.13;;;4.53;;
48629;SDS011;34426;52.180;4.462;2023-09-19T06:23:12;23.13;;;4.57;;
48629;SDS011;34426;52.180;4.462;2023-09-19T06:25:38;32.45;;;4.40;;
48629;SDS011;34426;52.180;4.462;2023-09-19T06:28:03;20.00;;;4.20;;
48629;SDS011;34426;52.180;4.462;2023-09-19T06:30:29;25.48;;;4.35;;
48629;SDS011;34426;52.180;4.462;2023-09-19T06:32:57;20.33;;;4.28;;
48629;SDS011;34426;52.180;4.462;2023-09-19T06:35:25;26.05;;;5.68;;
48629;SDS011;34426;52.180;4.462;2023-09-19T06:37:51;27.52;;;4.88;;
48629;SDS011;34426;52.180;4.462;2023-09-19T06:40:16;21.50;;;4.55;;
48629;SDS011;34426;52.180;4.462;2023-09-19T06:42:42;20.50;;;4.28;;
48629;SDS011;34426;52.180;4.462;2023-09-19T06:45:08;26.20;;;4.60;;
48629;SDS011;34426;52.180;4.462;2023-09-19T06:47:35;19.15;;;4.15;;
48629;SDS011;34426;52.180;4.462;2023-09-19T06:50:00;17.15;;;4.00;;
48629;SDS011;34426;52.180;4.462;2023-09-19T06:52:27;29.10;;;4.25;;
48629;SDS011;34426;52.180;4.462;2023-09-19T06:54:52;21.70;;;4.38;;
48629;SDS011;34426;52.180;4.462;2023-09-19T06:57:18;27.25;;;4.78;;
48629;SDS011;34426;52.180;4.462;2023-09-19T06:59:43;20.17;;;3.85;;
48629;SDS011;34426;52.180;4.462;2023-09-19T07:02:09;19.80;;;3.83;;
48629;SDS011;34426;52.180;4.462;2023-09-19T07:04:34;19.10;;;4.15;;
48629;SDS011;34426;52.180;4.462;2023-09-19T07:07:00;24.95;;;5.25;;
48629;SDS011;34426;52.180;4.462;2023-09-19T07:09:27;20.40;;;4.03;;
48629;SDS011;34426;52.180;4.462;2023-09-19T07:11:52;19.45;;;4.13;;
48629;SDS011;34426;52.180;4.462;2023-09-19T07:14:18;28.10;;;4.63;;
48629;SDS011;34426;52.180;4.462;2023-09-19T07:16:43;22.85;;;4.50;;
48629;SDS011;34426;52.180;4.462;2023-09-19T07:19:08;24.23;;;4.32;;
48629;SDS011;34426;52.180;4.462;2023-09-19T07:21:34;22.73;;;4.28;;
48629;SDS011;34426;52.180;4.462;2023-09-19T07:23:59;21.35;;;4.32;;
48629;SDS011;34426;52.180;4.462;2023-09-19T07:26:26;17.77;;;4.63;;
48629;SDS011;34426;52.180;4.462;2023-09-19T07:28:52;23.83;;;4.43;;
48629;SDS011;34426;52.180;4.462;2023-09-19T07:31:17;26.55;;;5.53;;
48629;SDS011;34426;52.180;4.462;2023-09-19T07:33:43;22.13;;;4.93;;
48629;SDS011;34426;52.180;4.462;2023-09-19T07:36:11;21.52;;;4.13;;
48629;SDS011;34426;52.180;4.462;2023-09-19T07:38:37;27.13;;;5.72;;
48629;SDS011;34426;52.180;4.462;2023-09-19T07:41:02;25.55;;;5.72;;
48629;SDS011;34426;52.180;4.462;2023-09-19T07:43:29;23.15;;;4.28;;
48629;SDS011;34426;52.180;4.462;2023-09-19T07:45:55;27.63;;;4.78;;
48629;SDS011;34426;52.180;4.462;2023-09-19T07:48:20;21.83;;;4.53;;
48629;SDS011;34426;52.180;4.462;2023-09-19T07:50:46;25.65;;;5.07;;
48629;SDS011;34426;52.180;4.462;2023-09-19T07:53:11;25.98;;;4.60;;
48629;SDS011;34426;52.180;4.462;2023-09-19T07:55:37;32.10;;;5.05;;
48629;SDS011;34426;52.180;4.462;2023-09-19T07:58:03;22.52;;;4.60;;
48629;SDS011;34426;52.180;4.462;2023-09-19T08:00:30;18.02;;;4.38;;
48629;SDS011;34426;52.180;4.462;2023-09-19T08:02:55;23.20;;;4.20;;
48629;SDS011;34426;52.180;4.462;2023-09-19T08:05:20;25.48;;;4.93;;
48629;SDS011;34426;52.180;4.462;2023-09-19T08:07:46;17.48;;;4.07;;
48629;SDS011;34426;52.180;4.462;2023-09-19T08:10:11;19.75;;;4.32;;
48629;SDS011;34426;52.180;4.462;2023-09-19T08:12:37;28.55;;;4.85;;
48629;SDS011;34426;52.180;4.462;2023-09-19T08:15:03;26.92;;;4.88;;
48629;SDS011;34426;52.180;4.462;2023-09-19T08:17:31;19.05;;;4.90;;
48629;SDS011;34426;52.180;4.462;2023-09-19T08:19:59;23.55;;;5.05;;
48629;SDS011;34426;52.180;4.462;2023-09-19T08:22:24;30.67;;;4.65;;
48629;SDS011;34426;52.180;4.462;2023-09-19T08:24:50;24.50;;;4.80;;
48629;SDS011;34426;52.180;4.462;2023-09-19T08:27:15;27.95;;;4.88;;
48629;SDS011;34426;52.180;4.462;2023-09-19T08:29:41;25.33;;;4.50;;
48629;SDS011;34426;52.180;4.462;2023-09-19T08:32:06;23.63;;;4.53;;
48629;SDS011;34426;52.180;4.462;2023-09-19T08:34:33;23.35;;;4.90;;
48629;SDS011;34426;52.180;4.462;2023-09-19T08:36:58;28.65;;;5.38;;
48629;SDS011;34426;52.180;4.462;2023-09-19T08:39:24;26.27;;;5.05;;
48629;SDS011;34426;52.180;4.462;2023-09-19T08:41:56;23.65;;;4.25;;
48629;SDS011;34426;52.180;4.462;2023-09-19T08:44:22;23.08;;;4.78;;
48629;SDS011;34426;52.180;4.462;2023-09-19T08:46:48;25.45;;;3.95;;
48629;SDS011;34426;52.180;4.462;2023-09-19T08:49:19;24.45;;;4.65;;
48629;SDS011;34426;52.180;4.462;2023-09-19T08:51:51;24.20;;;5.97;;
48629;SDS011;34426;52.180;4.462;2023-09-19T08:54:27;27.13;;;4.60;;
48629;SDS011;34426;52.180;4.462;2023-09-19T08:56:57;18.65;;;4.05;;
48629;SDS011;34426;52.180;4.462;2023-09-19T08:59:28;23.35;;;4.60;;
48629;SDS011;34426;52.180;4.462;2023-09-19T09:01:54;20.90;;;4.63;;
48629;SDS011;34426;52.180;4.462;2023-09-19T09:04:21;23.55;;;4.63;;
48629;SDS011;34426;52.180;4.462;2023-09-19T09:06:47;28.40;;;5.03;;
48629;SDS011;34426;52.180;4.462;2023-09-19T09:09:16;21.45;;;4.32;;
48629;SDS011;34426;52.180;4.462;2023-09-19T09:11:42;24.85;;;5.40;;
48629;SDS011;34426;52.180;4.462;2023-09-19T09:14:07;20.10;;;4.20;;
48629;SDS011;34426;52.180;4.462;2023-09-19T09:16:33;18.20;;;4.00;;
48629;SDS011;34426;52.180;4.462;2023-09-19T09:18:59;26.45;;;5.50;;
48629;SDS011;34426;52.180;4.462;2023-09-19T09:21:25;20.13;;;4.55;;
48629;SDS011;34426;52.180;4.462;2023-09-19T09:23:51;19.77;;;4.72;;
48629;SDS011;34426;52.180;4.462;2023-09-19T09:26:17;22.13;;;5.05;;
48629;SDS011;34426;52.180;4.462;2023-09-19T09:29:06;22.27;;;5.38;;
48629;SDS011;34426;52.180;4.462;2023-09-19T09:31:32;38.05;;;5.97;;
48629;SDS011;34426;52.180;4.462;2023-09-19T09:33:57;35.22;;;5.10;;
48629;SDS011;34426;52.180;4.462;2023-09-19T09:36:36;23.40;;;4.45;;
48629;SDS011;34426;52.180;4.462;2023-09-19T09:39:02;20.92;;;4.75;;
48629;SDS011;34426;52.180;4.462;2023-09-19T09:41:36;35.67;;;5.10;;
48629;SDS011;34426;52.180;4.462;2023-09-19T09:44:10;17.42;;;4.38;;
48629;SDS011;34426;52.180;4.462;2023-09-19T09:46:37;27.00;;;5.43;;
48629;SDS011;34426;52.180;4.462;2023-09-19T09:49:07;27.27;;;4.97;;
48629;SDS011;34426;52.180;4.462;2023-09-19T09:51:35;17.00;;;3.78;;
48629;SDS011;34426;52.180;4.462;2023-09-19T09:54:09;22.15;;;3.92;;
48629;SDS011;34426;52.180;4.462;2023-09-19T09:56:36;23.17;;;4.85;;
48629;SDS011;34426;52.180;4.462;2023-09-19T09:59:17;24.10;;;4.25;;
48629;SDS011;34426;52.180;4.462;2023-09-19T10:01:46;25.30;;;4.97;;
48629;SDS011;34426;52.180;4.462;2023-09-19T10:04:11;21.33;;;3.95;;
48629;SDS011;34426;52.180;4.462;2023-09-19T10:06:52;16.42;;;3.70;;
48629;SDS011;34426;52.180;4.462;2023-09-19T10:09:17;20.65;;;3.95;;
48629;SDS011;34426;52.180;4.462;2023-09-19T10:11:45;22.02;;;3.92;;
48629;SDS011;34426;52.180;4.462;2023-09-19T10:14:12;14.75;;;3.65;;
48629;SDS011;34426;52.180;4.462;2023-09-19T10:16:41;20.02;;;4.10;;
48629;SDS011;34426;52.180;4.462;2023-09-19T10:19:10;19.10;;;3.72;;
48629;SDS011;34426;52.180;4.462;2023-09-19T10:21:40;17.35;;;3.85;;
48629;SDS011;34426;52.180;4.462;2023-09-19T10:24:06;22.73;;;3.70;;
48629;SDS011;34426;52.180;4.462;2023-09-19T10:26:34;24.83;;;4.07;;
48629;SDS011;34426;52.180;4.462;2023-09-19T10:29:02;22.10;;;4.05;;
48629;SDS011;34426;52.180;4.462;2023-09-19T10:31:31;19.38;;;3.72;;
48629;SDS011;34426;52.180;4.462;2023-09-19T10:33:57;18.33;;;2.80;;
48629;SDS011;34426;52.180;4.462;2023-09-19T10:36:24;19.30;;;3.50;;
48629;SDS011;34426;52.180;4.462;2023-09-19T10:38:50;14.60;;;2.80;;
48629;SDS011;34426;52.180;4.462;2023-09-19T10:41:17;18.27;;;2.85;;
48629;SDS011;34426;52.180;4.462;2023-09-19T10:43:46;18.23;;;3.22;;
48629;SDS011;34426;52.180;4.462;2023-09-19T10:46:14;21.70;;;3.55;;
48629;SDS011;34426;52.180;4.462;2023-09-19T10:48:40;15.90;;;2.70;;
48629;SDS011;34426;52.180;4.462;2023-09-19T10:51:07;16.23;;;3.55;;
48629;SDS011;34426;52.180;4.462;2023-09-19T10:53:40;19.33;;;3.78;;
48629;SDS011;34426;52.180;4.462;2023-09-19T10:56:10;24.50;;;4.05;;
48629;SDS011;34426;52.180;4.462;2023-09-19T11:01:08;15.57;;;2.95;;
48629;SDS011;34426;52.180;4.462;2023-09-19T11:03:34;16.80;;;3.40;;
48629;SDS011;34426;52.180;4.462;2023-09-19T11:06:01;16.02;;;3.20;;
48629;SDS011;34426;52.180;4.462;2023-09-19T11:08:30;20.83;;;3.38;;
48629;SDS011;34426;52.180;4.462;2023-09-19T11:14:16;16.00;;;3.20;;
48629;SDS011;34426;52.180;4.462;2023-09-19T11:20:21;18.17;;;2.90;;
48629;SDS011;34426;52.180;4.462;2023-09-19T11:25:49;18.50;;;3.47;;
48629;SDS011;34426;52.180;4.462;2023-09-19T11:30:59;16.52;;;3.58;;
48629;SDS011;34426;52.180;4.462;2023-09-19T11:40:08;17.48;;;2.65;;
48629;SDS011;34426;52.180;4.462;2023-09-19T11:42:41;19.30;;;2.15;;
48629;SDS011;34426;52.180;4.462;2023-09-19T11:45:07;17.08;;;2.78;;
48629;SDS011;34426;52.180;4.462;2023-09-19T11:47:53;13.88;;;2.67;;
48629;SDS011;34426;52.180;4.462;2023-09-19T11:50:19;13.82;;;2.85;;
48629;SDS011;34426;52.180;4.462;2023-09-19T11:52:45;17.05;;;2.72;;
48629;SDS011;34426;52.180;4.462;2023-09-19T11:55:13;9.90;;;2.13;;
48629;SDS011;34426;52.180;4.462;2023-09-19T11:57:39;16.67;;;3.17;;
48629;SDS011;34426;52.180;4.462;2023-09-19T12:00:05;10.43;;;2.05;;
48629;SDS011;34426;52.180;4.462;2023-09-19T12:02:35;12.52;;;3.13;;
48629;SDS011;34426;52.180;4.462;2023-09-19T12:05:04;18.23;;;2.83;;
48629;SDS011;34426;52.180;4.462;2023-09-19T12:07:30;10.00;;;2.10;;
48629;SDS011;34426;52.180;4.462;2023-09-19T12:10:07;17.42;;;3.35;;
48629;SDS011;34426;52.180;4.462;2023-09-19T12:12:34;18.67;;;2.97;;
48629;SDS011;34426;52.180;4.462;2023-09-19T12:15:00;15.35;;;2.75;;
48629;SDS011;34426;52.180;4.462;2023-09-19T12:17:34;16.70;;;2.83;;
48629;SDS011;34426;52.180;4.462;2023-09-19T12:20:00;15.63;;;3.90;;
48629;SDS011;34426;52.180;4.462;2023-09-19T12:22:28;13.60;;;2.83;;
48629;SDS011;34426;52.180;4.462;2023-09-19T12:25:05;16.77;;;3.15;;
48629;SDS011;34426;52.180;4.462;2023-09-19T12:27:31;19.10;;;3.45;;
48629;SDS011;34426;52.180;4.462;2023-09-19T12:30:08;17.42;;;2.83;;
48629;SDS011;34426;52.180;4.462;2023-09-19T12:32:35;15.63;;;3.20;;
48629;SDS011;34426;52.180;4.462;2023-09-19T12:35:00;11.40;;;2.72;;
48629;SDS011;34426;52.180;4.462;2023-09-19T12:37:26;18.90;;;3.90;;
48629;SDS011;34426;52.180;4.462;2023-09-19T12:39:51;16.77;;;3.47;;
48629;SDS011;34426;52.180;4.462;2023-09-19T12:42:18;15.05;;;2.70;;
48629;SDS011;34426;52.180;4.462;2023-09-19T12:44:47;20.80;;;3.70;;
48629;SDS011;34426;52.180;4.462;2023-09-19T12:47:15;13.93;;;3.22;;
48629;SDS011;34426;52.180;4.462;2023-09-19T12:52:36;15.38;;;2.80;;
48629;SDS011;34426;52.180;4.462;2023-09-19T12:55:02;17.52;;;3.50;;
48629;SDS011;34426;52.180;4.462;2023-09-19T12:57:28;15.02;;;3.30;;
48629;SDS011;34426;52.180;4.462;2023-09-19T12:59:55;20.60;;;3.33;;
48629;SDS011;34426;52.180;4.462;2023-09-19T13:02:20;19.05;;;3.15;;
48629;SDS011;34426;52.180;4.462;2023-09-19T13:04:51;17.35;;;3.45;;
48629;SDS011;34426;52.180;4.462;2023-09-19T13:10:07;20.35;;;3.85;;
48629;SDS011;34426;52.180;4.462;2023-09-19T13:12:34;13.38;;;3.45;;
48629;SDS011;34426;52.180;4.462;2023-09-19T13:15:08;12.05;;;2.50;;
48629;SDS011;34426;52.180;4.462;2023-09-19T13:17:42;11.20;;;3.30;;
48629;SDS011;34426;52.180;4.462;2023-09-19T13:20:20;15.90;;;2.55;;
48629;SDS011;34426;52.180;4.462;2023-09-19T13:22:46;15.07;;;3.05;;
48629;SDS011;34426;52.180;4.462;2023-09-19T13:25:13;10.68;;;2.85;;
48629;SDS011;34426;52.180;4.462;2023-09-19T13:27:40;16.85;;;3.90;;
48629;SDS011;34426;52.180;4.462;2023-09-19T13:30:08;14.45;;;3.33;;
48629;SDS011;34426;52.180;4.462;2023-09-19T13:32:34;21.70;;;3.60;;
48629;SDS011;34426;52.180;4.462;2023-09-19T13:35:00;28.45;;;4.78;;
48629;SDS011;34426;52.180;4.462;2023-09-19T13:37:25;21.27;;;3.70;;
48629;SDS011;34426;52.180;4.462;2023-09-19T13:39:51;21.77;;;4.30;;
48629;SDS011;34426;52.180;4.462;2023-09-19T13:42:16;21.75;;;4.40;;
48629;SDS011;34426;52.180;4.462;2023-09-19T13:44:42;19.90;;;4.60;;
48629;SDS011;34426;52.180;4.462;2023-09-19T13:47:08;19.42;;;4.18;;
48629;SDS011;34426;52.180;4.462;2023-09-19T13:49:34;24.67;;;4.82;;
48629;SDS011;34426;52.180;4.462;2023-09-19T13:51:59;23.13;;;4.70;;
48629;SDS011;34426;52.180;4.462;2023-09-19T13:54:25;33.50;;;5.22;;
48629;SDS011;34426;52.180;4.462;2023-09-19T13:56:50;23.27;;;4.53;;
48629;SDS011;34426;52.180;4.462;2023-09-19T13:59:16;29.83;;;5.78;;
48629;SDS011;34426;52.180;4.462;2023-09-19T14:01:41;24.58;;;5.13;;
48629;SDS011;34426;52.180;4.462;2023-09-19T14:04:08;25.48;;;6.60;;
48629;SDS011;34426;52.180;4.462;2023-09-19T14:06:34;28.92;;;5.55;;
48629;SDS011;34426;52.180;4.462;2023-09-19T14:08:59;18.65;;;4.82;;
48629;SDS011;34426;52.180;4.462;2023-09-19T14:11:24;31.73;;;5.35;;
48629;SDS011;34426;52.180;4.462;2023-09-19T14:13:50;30.27;;;6.22;;
48629;SDS011;34426;52.180;4.462;2023-09-19T14:16:16;21.48;;;4.63;;
48629;SDS011;34426;52.180;4.462;2023-09-19T14:18:42;30.40;;;5.60;;
48629;SDS011;34426;52.180;4.462;2023-09-19T14:21:08;24.45;;;5.57;;
48629;SDS011;34426;52.180;4.462;2023-09-19T14:23:34;29.58;;;5.38;;
48629;SDS011;34426;52.180;4.462;2023-09-19T14:26:00;30.25;;;5.00;;
48629;SDS011;34426;52.180;4.462;2023-09-19T14:28:26;20.05;;;4.55;;
48629;SDS011;34426;52.180;4.462;2023-09-19T14:30:52;22.15;;;4.85;;
48629;SDS011;34426;52.180;4.462;2023-09-19T14:33:17;25.20;;;4.75;;
48629;SDS011;34426;52.180;4.462;2023-09-19T14:35:43;19.35;;;4.50;;
48629;SDS011;34426;52.180;4.462;2023-09-19T14:38:09;26.33;;;5.35;;
48629;SDS011;34426;52.180;4.462;2023-09-19T14:40:35;23.13;;;4.63;;
48629;SDS011;34426;52.180;4.462;2023-09-19T14:43:00;29.80;;;5.32;;
48629;SDS011;34426;52.180;4.462;2023-09-19T14:45:26;28.55;;;4.93;;
48629;SDS011;34426;52.180;4.462;2023-09-19T14:47:51;21.17;;;3.72;;
48629;SDS011;34426;52.180;4.462;2023-09-19T14:50:17;28.33;;;5.68;;
48629;SDS011;34426;52.180;4.462;2023-09-19T14:52:42;21.25;;;4.72;;
48629;SDS011;34426;52.180;4.462;2023-09-19T14:55:09;42.72;;;6.05;;
48629;SDS011;34426;52.180;4.462;2023-09-19T14:57:35;25.48;;;5.32;;
48629;SDS011;34426;52.180;4.462;2023-09-19T15:00:00;32.70;;;6.47;;
48629;SDS011;34426;52.180;4.462;2023-09-19T15:02:25;35.30;;;6.05;;
48629;SDS011;34426;52.180;4.462;2023-09-19T15:04:51;33.47;;;5.72;;